19°C Temp
14°C Dewpoint
73% Humidity
Temperature
13 KM/H
8 MPH
7 KTS
120°
East South
East

Wind Speed
Clear
Conditions
Pressure 1020.92 (hPa) - 30.15 (in)
Visibility 6.2 (mi) - 10.0 (km)

Current Conditions
EKCH
Location 55(km)
Metar :EKCH 122050Z AUTO 12007KT 9999 NCD 19/14 Q1021 NOSIG
Wed 12th August 22:50 pm

Airport
  Metar Aviation API Data Provided by https://www.checkwx.com/ PHP scripts by weather34.com ©2020